Buxton, Oregon
Current Conditions -  °F | °C
As of 2:53 PM on Friday 31 Oct 2014 (Local Time) from KHIO Reporting Station
Broken Clouds Broken Clouds  
Wind Chill: 58°   Ceiling: 9000
Heat Index: 58°   Visibility: 10mi
Dew Point: 49°   Wind: 7mph
Humidity: 72%   Direction: 170°S
Pressure: 29.83"   Gusts: NA
Location:  45.69°N, 123.19°W
Report Text: KHIO 312153Z 17006KT 10SM SCT018 BKN090 14/09 A2983 RMK AO2 SLP099 T01440094
Loading
Personal Weather Stations






























Interactive Weather Map
Tropical Storm Tracking
New forecast layout! Learn more

10-Day Weather Forecast

Advertisements
Track Severe Weather on mobile